Time;durP1;ratioP1;P1;durP2;ratioP2;P2;SDS_P1;SDS_P2;PMS_P1;PMS_P2;Temp;Humidity;BMP_temperature;BMP_pressure;BME280_temperature;BME280_humidity;BME280_pressure;Samples;Min_cycle;Max_cycle;Signal;HPM_P1;HPM_P2
2023/03/03 00:00:33;;;;;;;7.50;4.35;;;;;;;;;;5033509;28;20052;-50
2023/03/03 00:03:00;;;;;;;5.35;4.00;;;;;;;;;;5033394;28;20099;-50
2023/03/03 00:05:25;;;;;;;6.40;4.30;;;;;;;;;;5033508;28;20026;-51
2023/03/03 00:07:50;;;;;;;6.90;3.60;;;;;;;;;;5033466;28;20434;-51
2023/03/03 00:10:16;;;;;;;6.22;3.50;;;;;;;;;;5033239;28;20581;-50
2023/03/03 00:12:46;;;;;;;7.43;4.25;;;;;;;;;;5033457;28;20057;-50
2023/03/03 00:15:18;;;;;;;7.38;3.90;;;;;;;;;;5033250;28;20052;-50
2023/03/03 00:17:44;;;;;;;9.70;4.15;;;;;;;;;;5033220;28;20076;-51
2023/03/03 00:20:28;;;;;;;6.32;3.80;;;;;;;;;;5033141;28;20041;-50
2023/03/03 00:22:55;;;;;;;7.38;4.47;;;;;;;;;;5033066;28;20083;-50
2023/03/03 00:25:27;;;;;;;7.28;4.70;;;;;;;;;;5032935;28;20092;-50
2023/03/03 00:27:53;;;;;;;7.35;4.90;;;;;;;;;;5033070;28;20053;-50
2023/03/03 00:30:25;;;;;;;11.93;4.38;;;;;;;;;;5031618;28;20507;-51
2023/03/03 00:32:52;;;;;;;5.25;3.40;;;;;;;;;;5048277;28;20143;-50
2023/03/03 00:35:26;;;;;;;6.75;3.70;;;;;;;;;;5031593;28;20116;-50
2023/03/03 00:37:58;;;;;;;7.03;4.20;;;;;;;;;;5031511;28;20037;-50
2023/03/03 00:40:26;;;;;;;7.70;4.35;;;;;;;;;;5015028;28;20033;-51
2023/03/03 00:42:53;;;;;;;6.78;4.28;;;;;;;;;;5048107;28;20029;-50
2023/03/03 00:45:18;;;;;;;6.47;4.00;;;;;;;;;;5015029;28;20040;-50
2023/03/03 00:47:44;;;;;;;11.32;4.97;;;;;;;;;;5032125;28;20025;-51
2023/03/03 00:50:09;;;;;;;9.38;5.50;;;;;;;;;;5031392;28;20034;-51
2023/03/03 00:52:39;;;;;;;12.13;4.95;;;;;;;;;;5032533;28;20018;-50
2023/03/03 00:55:05;;;;;;;2.92;1.90;;;;;;;;;;5032833;28;20034;-50
2023/03/03 00:57:30;;;;;;;5.30;2.65;;;;;;;;;;5032484;28;20091;-53
2023/03/03 00:59:56;;;;;;;6.63;3.10;;;;;;;;;;5032227;28;20032;-50
2023/03/03 01:02:22;;;;;;;6.53;3.60;;;;;;;;;;5031286;28;20097;-50
2023/03/03 01:04:49;;;;;;;8.07;4.25;;;;;;;;;;5032407;28;20022;-51
2023/03/03 01:07:15;;;;;;;5.10;3.05;;;;;;;;;;5047458;28;20083;-50
2023/03/03 01:09:40;;;;;;;6.65;3.63;;;;;;;;;;5047578;28;20025;-50
2023/03/03 01:12:05;;;;;;;5.13;3.80;;;;;;;;;;5032142;28;20021;-50
2023/03/03 01:14:31;;;;;;;4.93;2.72;;;;;;;;;;5047461;28;20033;-50
2023/03/03 01:16:57;;;;;;;7.75;4.30;;;;;;;;;;5030733;28;20017;-50
2023/03/03 01:19:22;;;;;;;4.57;1.92;;;;;;;;;;5032157;28;20025;-50
2023/03/03 01:21:49;;;;;;;11.27;5.18;;;;;;;;;;5031952;28;20037;-50
2023/03/03 01:24:14;;;;;;;3.83;2.72;;;;;;;;;;5031869;28;20093;-50
2023/03/03 01:26:39;;;;;;;5.97;3.55;;;;;;;;;;5032059;28;20384;-51
2023/03/03 01:29:05;;;;;;;4.70;3.03;;;;;;;;;;5031809;28;20033;-51
2023/03/03 01:31:30;;;;;;;11.13;5.22;;;;;;;;;;5031962;28;20029;-50
2023/03/03 01:33:56;;;;;;;7.90;3.88;;;;;;;;;;5014067;28;20033;-50
2023/03/03 01:36:24;;;;;;;10.23;4.97;;;;;;;;;;5031757;28;20421;-50
2023/03/03 01:38:50;;;;;;;7.28;4.60;;;;;;;;;;5031759;28;20412;-51
2023/03/03 01:41:16;;;;;;;7.32;3.53;;;;;;;;;;5030293;28;20021;-50
2023/03/03 01:43:43;;;;;;;5.63;4.70;;;;;;;;;;5031782;28;20037;-50
2023/03/03 01:46:21;;;;;;;13.60;5.35;;;;;;;;;;5030322;28;20379;-50
2023/03/03 01:48:46;;;;;;;6.88;3.30;;;;;;;;;;5013928;28;20116;-50
2023/03/03 01:51:11;;;;;;;7.65;4.57;;;;;;;;;;5031557;28;20156;-51
2023/03/03 01:53:42;;;;;;;8.13;4.05;;;;;;;;;;5030328;28;20033;-50
2023/03/03 01:56:08;;;;;;;9.13;5.32;;;;;;;;;;5031355;28;20025;-50
2023/03/03 01:58:35;;;;;;;9.02;4.60;;;;;;;;;;5031699;28;20044;-50
2023/03/03 02:01:06;;;;;;;9.60;4.03;;;;;;;;;;5031389;28;20380;-50
2023/03/03 02:03:32;;;;;;;7.60;3.83;;;;;;;;;;5046738;28;20479;-50
2023/03/03 02:06:00;;;;;;;5.95;3.58;;;;;;;;;;5031347;28;20028;-50
2023/03/03 02:08:29;;;;;;;10.82;4.30;;;;;;;;;;5031439;28;20097;-50
2023/03/03 02:10:56;;;;;;;8.98;4.15;;;;;;;;;;5046496;28;20566;-50
2023/03/03 02:13:23;;;;;;;8.57;3.72;;;;;;;;;;5030068;28;20467;-50
2023/03/03 02:15:49;;;;;;;10.30;4.30;;;;;;;;;;5031623;28;20029;-50
2023/03/03 02:18:16;;;;;;;8.73;4.75;;;;;;;;;;5029772;28;20124;-51
2023/03/03 02:20:54;;;;;;;9.20;5.07;;;;;;;;;;5031323;28;20053;-50
2023/03/03 02:23:32;;;;;;;10.25;4.28;;;;;;;;;;5031201;28;20470;-50
2023/03/03 02:26:06;;;;;;;9.65;5.20;;;;;;;;;;5031144;28;20022;-51
2023/03/03 02:28:33;;;;;;;6.72;3.47;;;;;;;;;;5029963;28;20038;-50
2023/03/03 02:31:04;;;;;;;11.48;5.35;;;;;;;;;;5029691;28;20104;-50
2023/03/03 02:33:30;;;;;;;9.57;4.85;;;;;;;;;;5030039;28;20021;-50
2023/03/03 02:35:55;;;;;;;9.98;5.55;;;;;;;;;;5013484;28;20025;-50
2023/03/03 02:38:39;;;;;;;10.13;3.83;;;;;;;;;;5046283;28;20042;-50
2023/03/03 02:41:16;;;;;;;7.15;4.15;;;;;;;;;;5031032;28;20033;-50
2023/03/03 02:43:49;;;;;;;11.43;6.82;;;;;;;;;;5046458;28;20492;-50
2023/03/03 02:46:15;;;;;;;6.20;3.37;;;;;;;;;;5031051;28;20479;-50
2023/03/03 02:48:40;;;;;;;9.40;4.28;;;;;;;;;;5031095;28;20107;-50
2023/03/03 02:51:06;;;;;;;12.35;5.15;;;;;;;;;;5046290;28;20036;-50
2023/03/03 02:53:31;;;;;;;6.50;4.05;;;;;;;;;;5030983;28;20032;-50
2023/03/03 02:55:57;;;;;;;8.63;4.50;;;;;;;;;;5029668;28;20099;-50
2023/03/03 02:58:23;;;;;;;10.70;4.97;;;;;;;;;;5031027;28;20084;-50
2023/03/03 03:00:49;;;;;;;7.57;3.78;;;;;;;;;;5013183;28;20495;-50
2023/03/03 03:03:18;;;;;;;12.40;5.00;;;;;;;;;;5029613;28;20028;-50
2023/03/03 03:05:43;;;;;;;7.32;4.43;;;;;;;;;;5029626;28;20026;-50
2023/03/03 03:08:09;;;;;;;10.52;6.35;;;;;;;;;;5029429;28;20021;-50
2023/03/03 03:10:35;;;;;;;3.25;1.85;;;;;;;;;;5031481;28;20125;-49
2023/03/03 03:13:01;;;;;;;12.32;5.43;;;;;;;;;;5049758;28;20068;-50
2023/03/03 03:15:26;;;;;;;10.38;3.90;;;;;;;;;;5033036;28;20030;-51
2023/03/03 03:17:52;;;;;;;12.60;4.43;;;;;;;;;;5034583;28;20037;-50
2023/03/03 03:20:18;;;;;;;7.00;4.38;;;;;;;;;;5034226;28;20534;-50
2023/03/03 03:22:44;;;;;;;9.63;4.40;;;;;;;;;;5034278;28;20491;-50
2023/03/03 03:25:09;;;;;;;9.80;4.03;;;;;;;;;;5034000;28;20116;-50
2023/03/03 03:27:35;;;;;;;11.57;5.95;;;;;;;;;;5034510;28;20116;-50
2023/03/03 03:30:00;;;;;;;11.57;3.55;;;;;;;;;;5049330;28;20029;-50
2023/03/03 03:32:27;;;;;;;9.27;4.72;;;;;;;;;;5032846;28;20033;-50
2023/03/03 03:34:52;;;;;;;8.45;3.90;;;;;;;;;;5034073;28;20026;-50
2023/03/03 03:37:19;;;;;;;5.65;3.53;;;;;;;;;;5032601;28;20034;-50
2023/03/03 03:39:47;;;;;;;10.82;5.80;;;;;;;;;;5033006;28;20041;-50
2023/03/03 03:42:12;;;;;;;5.07;3.80;;;;;;;;;;5032551;28;20025;-50
2023/03/03 03:44:38;;;;;;;6.10;3.97;;;;;;;;;;5033895;28;20118;-50
2023/03/03 03:47:04;;;;;;;13.52;4.28;;;;;;;;;;5033841;28;20025;-51
2023/03/03 03:49:30;;;;;;;13.75;4.43;;;;;;;;;;5033979;28;20384;-51
2023/03/03 03:51:57;;;;;;;6.90;4.82;;;;;;;;;;5032402;28;20032;-50
2023/03/03 03:54:25;;;;;;;12.00;5.75;;;;;;;;;;5016408;28;20432;-50
2023/03/03 03:56:53;;;;;;;9.27;4.90;;;;;;;;;;5032261;28;20033;-50
2023/03/03 03:59:19;;;;;;;11.23;5.05;;;;;;;;;;5048876;28;20026;-50
2023/03/03 04:01:45;;;;;;;6.30;3.25;;;;;;;;;;5033888;28;20133;-50
2023/03/03 04:04:10;;;;;;;7.72;3.25;;;;;;;;;;5032148;28;20187;-50
2023/03/03 04:06:36;;;;;;;15.18;5.75;;;;;;;;;;5032238;28;20022;-50
2023/03/03 04:09:04;;;;;;;8.43;5.13;;;;;;;;;;5032127;28;20026;-50
2023/03/03 04:11:30;;;;;;;8.18;4.25;;;;;;;;;;5032036;28;20018;-50
2023/03/03 04:13:56;;;;;;;9.75;4.38;;;;;;;;;;5031976;28;20026;-50
2023/03/03 04:16:21;;;;;;;7.18;4.43;;;;;;;;;;5031950;28;20108;-50
2023/03/03 04:18:47;;;;;;;4.20;2.47;;;;;;;;;;5033511;28;20478;-50
2023/03/03 04:21:14;;;;;;;11.00;4.68;;;;;;;;;;5048404;28;20022;-50
2023/03/03 04:23:40;;;;;;;9.57;3.67;;;;;;;;;;5047329;28;20049;-50
2023/03/03 04:26:06;;;;;;;10.48;4.85;;;;;;;;;;5048401;28;20061;-50
2023/03/03 04:28:32;;;;;;;10.05;5.20;;;;;;;;;;5031802;28;20033;-50
2023/03/03 04:30:58;;;;;;;13.02;5.53;;;;;;;;;;5031662;28;20036;-50
2023/03/03 04:33:24;;;;;;;6.10;3.25;;;;;;;;;;5048302;28;20073;-51
2023/03/03 04:35:50;;;;;;;4.65;2.97;;;;;;;;;;5031799;28;20052;-50
2023/03/03 04:38:16;;;;;;;9.70;5.45;;;;;;;;;;5032755;28;20604;-50
2023/03/03 04:40:42;;;;;;;12.95;5.53;;;;;;;;;;5031522;28;20032;-51
2023/03/03 04:43:10;;;;;;;15.48;4.57;;;;;;;;;;5048052;28;20030;-50
2023/03/03 04:45:35;;;;;;;9.00;4.68;;;;;;;;;;5048128;28;20420;-50
2023/03/03 04:48:01;;;;;;;9.05;4.65;;;;;;;;;;5031312;28;20060;-50
2023/03/03 04:50:28;;;;;;;2.40;1.83;;;;;;;;;;5031393;28;20021;-50
2023/03/03 04:52:53;;;;;;;8.73;4.95;;;;;;;;;;5031354;28;20033;-50
2023/03/03 04:55:19;;;;;;;7.22;5.43;;;;;;;;;;5031164;28;20026;-50
2023/03/03 04:57:46;;;;;;;9.73;4.47;;;;;;;;;;5031140;28;20120;-50
2023/03/03 05:00:13;;;;;;;14.30;5.43;;;;;;;;;;5031033;28;20379;-50
2023/03/03 05:02:39;;;;;;;9.38;5.35;;;;;;;;;;5031107;28;20120;-50
2023/03/03 05:05:05;;;;;;;13.10;5.20;;;;;;;;;;5030989;28;20040;-50
2023/03/03 05:07:31;;;;;;;17.92;4.07;;;;;;;;;;5032408;28;20647;-50
2023/03/03 05:09:56;;;;;;;9.30;4.70;;;;;;;;;;5032219;28;20013;-50
2023/03/03 05:12:22;;;;;;;9.68;4.60;;;;;;;;;;5032323;28;20079;-51
2023/03/03 05:14:47;;;;;;;11.38;5.57;;;;;;;;;;5032178;28;20060;-50
2023/03/03 05:17:13;;;;;;;7.90;4.38;;;;;;;;;;5031952;28;20578;-50
2023/03/03 05:19:38;;;;;;;5.75;4.03;;;;;;;;;;5032113;28;20059;-50
2023/03/03 05:22:04;;;;;;;7.60;3.78;;;;;;;;;;5031995;28;20449;-50
2023/03/03 05:24:29;;;;;;;11.27;4.60;;;;;;;;;;5031986;28;20056;-50
2023/03/03 05:26:55;;;;;;;10.32;5.30;;;;;;;;;;5032064;28;20136;-50
2023/03/03 05:29:20;;;;;;;7.32;5.35;;;;;;;;;;5030873;28;20669;-50
2023/03/03 05:31:46;;;;;;;7.97;4.47;;;;;;;;;;5032199;28;20034;-50
2023/03/03 05:34:11;;;;;;;12.52;6.03;;;;;;;;;;5031793;28;20456;-50
2023/03/03 05:36:36;;;;;;;9.02;4.20;;;;;;;;;;5031764;28;20025;-50
2023/03/03 05:39:02;;;;;;;12.55;5.60;;;;;;;;;;5031807;28;20371;-50
2023/03/03 05:41:27;;;;;;;6.57;4.18;;;;;;;;;;5031734;28;20033;-51
2023/03/03 05:43:53;;;;;;;8.27;5.72;;;;;;;;;;5031553;28;20025;-50
2023/03/03 05:46:18;;;;;;;9.18;4.35;;;;;;;;;;5030322;28;20033;-50
2023/03/03 05:48:44;;;;;;;8.60;4.07;;;;;;;;;;5031678;28;20047;-50
2023/03/03 05:51:09;;;;;;;9.77;5.10;;;;;;;;;;5046754;28;20514;-50
2023/03/03 05:53:35;;;;;;;11.85;5.57;;;;;;;;;;5031661;28;20678;-50
2023/03/03 05:56:01;;;;;;;7.35;3.92;;;;;;;;;;5031491;28;20037;-50
2023/03/03 05:58:27;;;;;;;6.15;2.88;;;;;;;;;;5031417;28;20036;-50
2023/03/03 06:00:53;;;;;;;8.98;5.55;;;;;;;;;;5031767;28;20065;-50
2023/03/03 06:03:18;;;;;;;9.63;4.63;;;;;;;;;;5031421;28;20068;-50
2023/03/03 06:05:44;;;;;;;6.63;4.65;;;;;;;;;;5031135;28;20061;-51
2023/03/03 06:08:09;;;;;;;8.00;4.18;;;;;;;;;;5031440;28;20490;-50
2023/03/03 06:10:34;;;;;;;9.77;5.65;;;;;;;;;;5031695;28;20518;-50
2023/03/03 06:13:03;;;;;;;6.88;4.13;;;;;;;;;;5030011;28;20021;-50
2023/03/03 06:15:29;;;;;;;5.07;1.90;;;;;;;;;;5031450;28;20040;-50
2023/03/03 06:17:54;;;;;;;8.63;4.53;;;;;;;;;;5031396;28;20122;-50
2023/03/03 06:20:20;;;;;;;10.40;4.03;;;;;;;;;;5031460;28;20083;-50
2023/03/03 06:22:45;;;;;;;7.78;4.35;;;;;;;;;;5031330;28;20018;-51
2023/03/03 06:25:10;;;;;;;8.95;3.80;;;;;;;;;;5031096;28;20060;-50
2023/03/03 06:27:36;;;;;;;10.60;5.53;;;;;;;;;;5046593;28;20040;-50
2023/03/03 06:30:02;;;;;;;8.40;4.75;;;;;;;;;;5029894;28;20030;-51
2023/03/03 06:32:28;;;;;;;11.45;4.60;;;;;;;;;;5031501;28;20025;-50
2023/03/03 06:34:53;;;;;;;4.32;2.85;;;;;;;;;;5031415;28;20407;-50
2023/03/03 06:37:19;;;;;;;10.73;4.85;;;;;;;;;;5030932;28;20112;-50
2023/03/03 06:39:44;;;;;;;8.50;3.80;;;;;;;;;;5031141;28;20083;-50
2023/03/03 06:42:10;;;;;;;5.57;3.90;;;;;;;;;;5031098;28;20121;-50
2023/03/03 06:44:35;;;;;;;7.25;4.07;;;;;;;;;;5031147;28;20053;-50
2023/03/03 06:47:01;;;;;;;8.25;4.60;;;;;;;;;;5033992;28;20486;-50
2023/03/03 06:49:26;;;;;;;10.57;5.53;;;;;;;;;;5035155;28;20038;-50
2023/03/03 06:51:52;;;;;;;10.35;4.97;;;;;;;;;;5034760;28;20369;-50
2023/03/03 06:54:19;;;;;;;10.40;4.10;;;;;;;;;;5033486;28;20124;-50
2023/03/03 06:56:45;;;;;;;6.63;3.08;;;;;;;;;;5034756;28;20403;-50
2023/03/03 06:59:12;;;;;;;9.70;4.97;;;;;;;;;;5034877;28;20056;-50
2023/03/03 07:01:38;;;;;;;8.65;4.00;;;;;;;;;;5034914;28;20116;-50
2023/03/03 07:04:09;;;;;;;7.85;3.85;;;;;;;;;;5034519;28;20466;-50
2023/03/03 07:06:36;;;;;;;7.55;4.57;;;;;;;;;;5034451;28;20041;-50
2023/03/03 07:09:07;;;;;;;11.48;4.82;;;;;;;;;;5034420;28;20040;-50
2023/03/03 07:11:38;;;;;;;9.02;4.28;;;;;;;;;;5034510;28;20044;-50
2023/03/03 07:14:07;;;;;;;8.10;4.43;;;;;;;;;;5034468;28;20080;-50
2023/03/03 07:16:33;;;;;;;8.15;4.68;;;;;;;;;;5034618;28;20375;-50
2023/03/03 07:19:04;;;;;;;8.90;4.35;;;;;;;;;;5034310;28;20108;-50
2023/03/03 07:21:30;;;;;;;14.80;5.65;;;;;;;;;;5033112;28;20033;-50
2023/03/03 07:23:57;;;;;;;4.72;2.63;;;;;;;;;;5032591;28;20053;-50
2023/03/03 07:26:29;;;;;;;7.75;4.45;;;;;;;;;;5034199;28;20395;-50
2023/03/03 07:28:59;;;;;;;8.00;4.35;;;;;;;;;;5034251;28;20033;-50
2023/03/03 07:31:34;;;;;;;13.13;5.18;;;;;;;;;;5034305;28;20037;-50
2023/03/03 07:34:00;;;;;;;11.35;5.05;;;;;;;;;;5034052;28;20116;-50
2023/03/03 07:36:30;;;;;;;9.23;4.10;;;;;;;;;;5033996;28;20059;-50
2023/03/03 07:39:19;;;;;;;7.20;3.75;;;;;;;;;;5034011;28;20108;-50
2023/03/03 07:41:44;;;;;;;9.48;3.95;;;;;;;;;;5033859;28;20044;-50
2023/03/03 07:44:18;;;;;;;8.75;4.85;;;;;;;;;;5033878;28;20484;-50
2023/03/03 07:46:47;;;;;;;9.88;4.90;;;;;;;;;;5033826;28;20053;-50
2023/03/03 07:49:34;;;;;;;2.40;2.15;;;;;;;;;;5033767;28;20060;-50
2023/03/03 07:51:59;;;;;;;10.50;4.68;;;;;;;;;;5032442;28;20163;-50
2023/03/03 07:54:36;;;;;;;11.48;3.72;;;;;;;;;;5034002;28;20105;-50
2023/03/03 07:57:11;;;;;;;9.73;3.65;;;;;;;;;;5033505;28;20094;-50
2023/03/03 07:59:39;;;;;;;8.85;3.83;;;;;;;;;;5033537;28;20057;-50
2023/03/03 08:02:12;;;;;;;5.57;4.25;;;;;;;;;;5033879;28;20112;-50
2023/03/03 08:04:38;;;;;;;;;;;;;;;;;;5034232;28;20380;-50
2023/03/03 08:07:10;;;;;;;6.03;3.60;;;;;;;;;;5033489;28;19905;-51
2023/03/03 08:09:36;;;;;;;6.50;4.30;;;;;;;;;;5033584;28;20108;-50
2023/03/03 08:12:01;;;;;;;5.93;3.17;;;;;;;;;;5033445;28;20096;-50
2023/03/03 08:14:29;;;;;;;8.23;3.70;;;;;;;;;;5033585;28;20045;-50
2023/03/03 08:16:55;;;;;;;9.63;3.70;;;;;;;;;;5033539;28;20087;-50
2023/03/03 08:19:20;;;;;;;7.78;3.85;;;;;;;;;;5033438;28;20029;-50
2023/03/03 08:21:46;;;;;;;8.10;4.35;;;;;;;;;;5033281;28;20478;-50
2023/03/03 08:24:11;;;;;;;8.48;3.95;;;;;;;;;;5033001;28;20045;-50
2023/03/03 08:26:37;;;;;;;4.20;3.55;;;;;;;;;;5033187;28;20538;-50
2023/03/03 08:29:02;;;;;;;6.60;2.92;;;;;;;;;;5032994;28;20029;-50
2023/03/03 08:31:28;;;;;;;4.35;3.55;;;;;;;;;;5033292;28;20025;-50
2023/03/03 08:33:54;;;;;;;10.80;4.57;;;;;;;;;;5032787;28;20403;-50
2023/03/03 08:36:19;;;;;;;6.95;3.30;;;;;;;;;;5032898;28;20025;-50
2023/03/03 08:38:45;;;;;;;6.35;3.50;;;;;;;;;;5032928;28;20156;-50
2023/03/03 08:41:10;;;;;;;8.18;3.55;;;;;;;;;;5032798;28;20018;-50
2023/03/03 08:43:36;;;;;;;3.75;2.63;;;;;;;;;;5033169;28;20033;-51
2023/03/03 08:46:02;;;;;;;8.20;3.95;;;;;;;;;;5032742;28;20014;-50
2023/03/03 08:48:28;;;;;;;11.35;3.03;;;;;;;;;;5032680;28;20037;-50
2023/03/03 08:50:53;;;;;;;5.72;3.15;;;;;;;;;;5032656;28;20017;-51
2023/03/03 08:53:19;;;;;;;4.55;3.05;;;;;;;;;;5032626;28;20117;-51
2023/03/03 08:55:44;;;;;;;5.93;3.08;;;;;;;;;;5032519;28;20025;-50
2023/03/03 08:58:10;;;;;;;4.05;2.05;;;;;;;;;;5032430;28;20072;-51
2023/03/03 09:00:35;;;;;;;9.15;4.03;;;;;;;;;;5032413;28;20090;-51
2023/03/03 09:03:01;;;;;;;4.85;2.50;;;;;;;;;;5032413;28;20030;-50
2023/03/03 09:05:26;;;;;;;5.32;3.20;;;;;;;;;;5032437;28;20017;-51
2023/03/03 09:07:52;;;;;;;2.78;2.15;;;;;;;;;;5031984;28;20771;-50
2023/03/03 09:10:21;;;;;;;5.70;2.67;;;;;;;;;;5031764;28;20500;-50
2023/03/03 09:12:47;;;;;;;5.22;2.70;;;;;;;;;;5031065;28;20108;-50
2023/03/03 09:15:30;;;;;;;4.28;2.63;;;;;;;;;;5030861;28;20112;-50
2023/03/03 09:18:09;;;;;;;3.22;1.88;;;;;;;;;;5032108;28;20472;-50
2023/03/03 09:20:34;;;;;;;10.15;3.72;;;;;;;;;;5030874;28;20044;-52
2023/03/03 09:23:20;;;;;;;5.82;3.20;;;;;;;;;;5031068;28;20018;-51
2023/03/03 09:25:46;;;;;;;3.95;2.90;;;;;;;;;;5021651;28;20178;-51
2023/03/03 09:28:31;;;;;;;5.65;2.97;;;;;;;;;;5032258;28;20065;-51
2023/03/03 09:31:01;;;;;;;5.63;3.03;;;;;;;;;;5032241;28;20040;-51
2023/03/03 09:33:41;;;;;;;4.63;2.83;;;;;;;;;;5030913;28;20108;-51
2023/03/03 09:36:22;;;;;;;7.03;2.95;;;;;;;;;;5031996;28;20112;-51
2023/03/03 09:38:47;;;;;;;5.72;3.45;;;;;;;;;;5032232;28;20048;-51
2023/03/03 09:41:30;;;;;;;6.63;3.22;;;;;;;;;;5032283;28;20018;-51
2023/03/03 09:43:56;;;;;;;;;;;;;;;;;;5032455;28;20041;-50
2023/03/03 09:46:44;;;;;;;4.43;2.65;;;;;;;;;;5031859;28;19905;-51
2023/03/03 09:49:28;;;;;;;5.93;3.92;;;;;;;;;;5031883;28;20040;-50
2023/03/03 09:52:02;;;;;;;4.28;2.72;;;;;;;;;;5031929;28;20464;-51
2023/03/03 09:54:30;;;;;;;6.30;2.88;;;;;;;;;;5032119;28;20029;-51
2023/03/03 09:56:55;;;;;;;3.90;2.08;;;;;;;;;;5031908;28;20052;-51
2023/03/03 09:59:21;;;;;;;7.97;3.72;;;;;;;;;;5031760;28;20072;-51
2023/03/03 10:02:09;;;;;;;8.95;3.08;;;;;;;;;;5031772;28;20110;-50
2023/03/03 10:05:03;;;;;;;3.38;2.70;;;;;;;;;;5031674;28;20033;-50
2023/03/03 10:07:36;;;;;;;3.25;2.55;;;;;;;;;;4978016;28;20140;-51
2023/03/03 10:10:10;;;;;;;8.85;3.35;;;;;;;;;;5031743;28;20396;-51
2023/03/03 10:12:45;;;;;;;4.47;2.67;;;;;;;;;;5031819;28;20025;-51
2023/03/03 10:15:39;;;;;;;5.45;2.22;;;;;;;;;;5031770;28;20041;-50
2023/03/03 10:18:16;;;;;;;6.15;2.85;;;;;;;;;;5028114;28;20346;-51
2023/03/03 10:20:41;;;;;;;8.10;3.63;;;;;;;;;;5032403;28;20048;-50
2023/03/03 10:23:10;;;;;;;4.72;2.60;;;;;;;;;;5035978;28;20017;-50
2023/03/03 10:26:02;;;;;;;6.38;3.03;;;;;;;;;;5035539;28;20091;-50
2023/03/03 10:28:47;;;;;;;5.40;3.10;;;;;;;;;;5032581;28;20041;-51
2023/03/03 10:31:15;;;;;;;2.08;1.75;;;;;;;;;;5035242;28;20034;-51
2023/03/03 10:33:56;;;;;;;2.28;1.70;;;;;;;;;;5035442;28;20490;-50
2023/03/03 10:36:21;;;;;;;5.00;3.35;;;;;;;;;;5035634;28;20032;-51
2023/03/03 10:38:50;;;;;;;6.38;2.55;;;;;;;;;;5035324;28;20392;-51
2023/03/03 10:41:34;;;;;;;4.05;3.15;;;;;;;;;;5035378;28;20045;-51
2023/03/03 10:43:59;;;;;;;5.75;3.00;;;;;;;;;;5035335;28;20472;-51
2023/03/03 10:46:28;;;;;;;5.80;2.63;;;;;;;;;;5035227;28;20018;-51
2023/03/03 10:48:53;;;;;;;4.22;2.75;;;;;;;;;;5035443;28;20472;-51
2023/03/03 10:51:38;;;;;;;7.10;2.80;;;;;;;;;;5035179;28;20013;-50
2023/03/03 10:54:11;;;;;;;3.75;2.47;;;;;;;;;;5035496;28;20088;-50
2023/03/03 10:56:37;;;;;;;6.50;2.50;;;;;;;;;;5035101;28;20036;-51
2023/03/03 10:59:10;;;;;;;4.25;2.30;;;;;;;;;;5035253;28;20025;-50
2023/03/03 11:01:35;;;;;;;;;;;;;;;;;;5035565;28;20056;-50
2023/03/03 11:04:21;;;;;;;5.75;2.75;;;;;;;;;;5034985;28;19905;-51
2023/03/03 11:06:52;;;;;;;6.80;3.58;;;;;;;;;;5024284;28;20076;-51
2023/03/03 11:09:36;;;;;;;4.10;2.67;;;;;;;;;;5034730;28;20087;-51
2023/03/03 11:12:31;;;;;;;6.20;3.33;;;;;;;;;;5017083;28;20075;-50
2023/03/03 11:15:05;;;;;;;2.53;1.55;;;;;;;;;;4980858;28;20469;-51
2023/03/03 11:17:31;;;;;;;3.92;2.67;;;;;;;;;;5034928;28;20116;-50
2023/03/03 11:20:09;;;;;;;4.28;2.60;;;;;;;;;;5034634;28;20105;-50
2023/03/03 11:22:53;;;;;;;7.00;2.60;;;;;;;;;;5033495;28;20048;-51
2023/03/03 11:25:21;;;;;;;6.13;2.53;;;;;;;;;;5034277;28;20053;-50
2023/03/03 11:27:57;;;;;;;4.60;3.03;;;;;;;;;;5016790;28;20033;-50
2023/03/03 11:30:22;;;;;;;2.65;2.00;;;;;;;;;;5034409;28;20116;-50
2023/03/03 11:32:52;;;;;;;2.38;2.05;;;;;;;;;;5033951;28;20129;-50
2023/03/03 11:35:17;;;;;;;2.28;1.98;;;;;;;;;;5034414;28;20108;-50
2023/03/03 11:37:49;;;;;;;6.45;2.95;;;;;;;;;;5034410;28;20112;-50
2023/03/03 11:40:20;;;;;;;7.30;3.00;;;;;;;;;;5034251;28;20040;-50
2023/03/03 11:42:45;;;;;;;5.68;1.90;;;;;;;;;;5034384;28;20108;-50
2023/03/03 11:45:14;;;;;;;4.55;3.35;;;;;;;;;;5034390;28;20048;-50
2023/03/03 11:47:54;;;;;;;3.75;2.33;;;;;;;;;;5034229;28;20119;-51
2023/03/03 11:50:49;;;;;;;6.45;3.20;;;;;;;;;;5032853;28;20029;-51
2023/03/03 11:53:14;;;;;;;7.22;3.45;;;;;;;;;;4980251;28;20109;-50
2023/03/03 11:55:41;;;;;;;13.13;2.90;;;;;;;;;;5032922;28;20010;-50
2023/03/03 11:58:16;;;;;;;7.60;2.28;;;;;;;;;;5034240;28;20046;-50
2023/03/03 12:00:50;;;;;;;5.22;2.45;;;;;;;;;;5033758;28;20033;-50
2023/03/03 12:03:16;;;;;;;2.92;2.40;;;;;;;;;;5033782;28;20040;-50
2023/03/03 12:05:50;;;;;;;6.35;3.42;;;;;;;;;;5033833;28;20025;-50
2023/03/03 12:08:22;;;;;;;6.97;3.58;;;;;;;;;;5032477;28;20030;-50
2023/03/03 12:10:50;;;;;;;3.72;3.25;;;;;;;;;;5033724;28;20025;-50
2023/03/03 12:13:35;;;;;;;4.43;2.63;;;;;;;;;;5033654;28;20464;-50
2023/03/03 12:16:27;;;;;;;3.60;2.55;;;;;;;;;;5033689;28;20041;-50
2023/03/03 12:19:03;;;;;;;2.67;1.42;;;;;;;;;;5010199;28;20041;-51
2023/03/03 12:21:32;;;;;;;5.03;2.15;;;;;;;;;;5033522;28;20040;-51
2023/03/03 12:24:07;;;;;;;2.95;1.92;;;;;;;;;;5033363;28;20045;-50
2023/03/03 12:26:32;;;;;;;1.75;1.58;;;;;;;;;;5033724;28;20108;-50
2023/03/03 12:29:04;;;;;;;2.08;1.58;;;;;;;;;;5033660;28;20120;-51
2023/03/03 12:31:36;;;;;;;4.32;1.45;;;;;;;;;;5032182;28;20026;-51
2023/03/03 12:34:07;;;;;;;5.18;1.73;;;;;;;;;;5033347;28;20163;-50
2023/03/03 12:36:51;;;;;;;2.97;1.83;;;;;;;;;;5033329;28;20068;-51
2023/03/03 12:39:35;;;;;;;1.52;1.23;;;;;;;;;;5033209;28;20048;-50
2023/03/03 12:42:00;;;;;;;2.60;1.50;;;;;;;;;;5033247;28;20083;-51
2023/03/03 12:44:33;;;;;;;1.55;1.45;;;;;;;;;;5032055;28;20025;-50
2023/03/03 12:47:01;;;;;;;5.43;2.22;;;;;;;;;;5033393;28;20029;-50
2023/03/03 12:49:47;;;;;;;3.97;1.85;;;;;;;;;;5032961;28;20022;-50
2023/03/03 12:52:30;;;;;;;2.72;1.95;;;;;;;;;;4992054;28;20033;-51
2023/03/03 12:54:55;;;;;;;0.95;0.73;;;;;;;;;;5033030;28;20025;-50
2023/03/03 12:57:34;;;;;;;2.47;1.80;;;;;;;;;;5032674;28;20041;-50
2023/03/03 13:00:09;;;;;;;3.80;2.05;;;;;;;;;;5032826;28;20108;-50
2023/03/03 13:02:50;;;;;;;4.47;2.03;;;;;;;;;;5031535;28;20032;-50
2023/03/03 13:05:38;;;;;;;2.33;1.65;;;;;;;;;;5032701;28;20104;-50
2023/03/03 13:08:15;;;;;;;4.60;2.17;;;;;;;;;;5030752;28;20037;-50
2023/03/03 13:10:44;;;;;;;2.38;1.70;;;;;;;;;;5032999;28;20119;-51
2023/03/03 13:13:24;;;;;;;3.40;2.05;;;;;;;;;;5032502;28;20104;-50
2023/03/03 13:15:50;;;;;;;2.13;1.73;;;;;;;;;;5032701;28;20029;-50
2023/03/03 13:18:24;;;;;;;1.60;1.50;;;;;;;;;;5032474;28;20036;-51
2023/03/03 13:20:57;;;;;;;2.58;1.48;;;;;;;;;;5032606;28;20113;-50
2023/03/03 13:23:23;;;;;;;3.30;2.20;;;;;;;;;;5032554;28;20060;-50
2023/03/03 13:25:58;;;;;;;1.60;1.42;;;;;;;;;;5031181;28;20480;-51
2023/03/03 13:28:30;;;;;;;3.50;1.92;;;;;;;;;;5032249;28;20460;-50
2023/03/03 13:31:15;;;;;;;2.33;1.65;;;;;;;;;;5032334;28;20112;-50
2023/03/03 13:33:48;;;;;;;3.92;1.95;;;;;;;;;;5031856;28;20033;-51
2023/03/03 13:36:15;;;;;;;1.73;1.38;;;;;;;;;;5032180;28;20033;-50
2023/03/03 13:38:45;;;;;;;3.95;2.85;;;;;;;;;;5032152;28;20056;-51
2023/03/03 13:41:22;;;;;;;4.13;2.28;;;;;;;;;;5032049;28;20037;-50
2023/03/03 13:43:57;;;;;;;4.05;2.47;;;;;;;;;;5032059;28;20079;-51
2023/03/03 13:46:31;;;;;;;5.70;1.80;;;;;;;;;;5032043;28;20029;-51
2023/03/03 13:49:06;;;;;;;2.50;1.65;;;;;;;;;;5031912;28;20113;-50
2023/03/03 13:51:50;;;;;;;4.75;2.42;;;;;;;;;;5032001;28;20484;-51
2023/03/03 13:54:41;;;;;;;1.63;1.52;;;;;;;;;;5031792;28;20112;-50
2023/03/03 13:57:12;;;;;;;4.10;2.65;;;;;;;;;;5031959;28;20507;-50
2023/03/03 13:59:44;;;;;;;3.08;1.55;;;;;;;;;;5031853;28;20032;-50
2023/03/03 14:02:28;;;;;;;4.72;2.67;;;;;;;;;;5031648;28;20044;-50
2023/03/03 14:04:54;;;;;;;3.53;1.70;;;;;;;;;;5031915;28;20037;-50
2023/03/03 14:07:38;;;;;;;2.72;1.85;;;;;;;;;;5032022;28;20024;-50
2023/03/03 14:10:06;;;;;;;4.57;2.15;;;;;;;;;;5032061;28;20038;-50
2023/03/03 14:12:47;;;;;;;5.45;2.50;;;;;;;;;;5032026;28;20032;-50
2023/03/03 14:15:15;;;;;;;5.70;1.60;;;;;;;;;;5031653;28;20025;-50
2023/03/03 14:17:59;;;;;;;4.97;2.15;;;;;;;;;;5031571;28;20029;-50
2023/03/03 14:20:35;;;;;;;5.97;2.70;;;;;;;;;;5031520;28;20030;-50
2023/03/03 14:23:03;;;;;;;4.07;2.35;;;;;;;;;;5031479;28;20037;-50
2023/03/03 14:25:48;;;;;;;5.13;2.42;;;;;;;;;;5031322;28;20042;-50
2023/03/03 14:28:14;;;;;;;6.15;2.95;;;;;;;;;;5031499;28;20112;-51
2023/03/03 14:30:41;;;;;;;3.10;2.10;;;;;;;;;;5031464;28;20036;-50
2023/03/03 14:33:06;;;;;;;3.55;2.92;;;;;;;;;;5031492;28;20152;-50
2023/03/03 14:35:54;;;;;;;4.70;2.17;;;;;;;;;;5031752;28;20033;-51
2023/03/03 14:38:22;;;;;;;7.05;1.52;;;;;;;;;;5031027;28;20068;-50
2023/03/03 14:40:47;;;;;;;4.93;2.38;;;;;;;;;;5031470;28;20108;-51
2023/03/03 14:43:22;;;;;;;2.15;1.80;;;;;;;;;;5031379;28;20120;-51
2023/03/03 14:45:48;;;;;;;3.15;1.85;;;;;;;;;;5031465;28;20095;-51
2023/03/03 14:48:24;;;;;;;3.25;2.22;;;;;;;;;;5030116;28;20464;-50
2023/03/03 14:50:49;;;;;;;8.15;3.08;;;;;;;;;;5031749;28;20030;-50
2023/03/03 14:53:19;;;;;;;3.15;2.47;;;;;;;;;;5031267;28;20037;-50
2023/03/03 14:55:50;;;;;;;3.53;1.85;;;;;;;;;;5031636;28;20423;-50